sensor_id;sensor_type;location;lat;lon;timestamp;pressure;altitude;pressure_sealevel;temperature;humidity
48563;BME280;34981;49.104;11.396;2022-09-06T00:00:57;95917.44;;;17.33;75.31
48563;BME280;34981;49.104;11.396;2022-09-06T00:03:24;95917.44;;;17.33;75.33
48563;BME280;34981;49.104;11.396;2022-09-06T00:05:53;95914.25;;;17.31;75.27
48563;BME280;34981;49.104;11.396;2022-09-06T00:08:21;95912.34;;;17.31;75.20
48563;BME280;34981;49.104;11.396;2022-09-06T00:10:55;95912.34;;;17.31;75.57
48563;BME280;34981;49.104;11.396;2022-09-06T00:13:27;95918.69;;;17.27;75.79
48563;BME280;34981;49.104;11.396;2022-09-06T00:15:54;95909.59;;;17.23;75.45
48563;BME280;34981;49.104;11.396;2022-09-06T00:18:21;95915.31;;;17.21;75.41
48563;BME280;34981;49.104;11.396;2022-09-06T00:20:48;95915.63;;;17.20;75.41
48563;BME280;34981;49.104;11.396;2022-09-06T00:23:15;95915.78;;;17.15;75.47
48563;BME280;34981;49.104;11.396;2022-09-06T00:25:43;95916.38;;;17.11;76.03
48563;BME280;34981;49.104;11.396;2022-09-06T00:28:10;95911.09;;;17.06;75.67
48563;BME280;34981;49.104;11.396;2022-09-06T00:30:37;95916.66;;;17.01;76.03
48563;BME280;34981;49.104;11.396;2022-09-06T00:33:04;95912.03;;;17.02;75.76
48563;BME280;34981;49.104;11.396;2022-09-06T00:35:31;95906.91;;;17.00;75.92
48563;BME280;34981;49.104;11.396;2022-09-06T00:37:59;95911.84;;;16.98;76.13
48563;BME280;34981;49.104;11.396;2022-09-06T00:40:27;95905.44;;;16.94;76.06
48563;BME280;34981;49.104;11.396;2022-09-06T00:42:56;95905.44;;;16.94;76.46
48563;BME280;34981;49.104;11.396;2022-09-06T00:45:24;95900.63;;;16.91;76.27
48563;BME280;34981;49.104;11.396;2022-09-06T00:47:51;95909.88;;;16.90;76.07
48563;BME280;34981;49.104;11.396;2022-09-06T00:50:18;95911.28;;;16.88;76.23
48563;BME280;34981;49.104;11.396;2022-09-06T00:52:46;95907.31;;;16.85;76.79
48563;BME280;34981;49.104;11.396;2022-09-06T00:55:14;95915.59;;;16.80;77.31
48563;BME280;34981;49.104;11.396;2022-09-06T00:57:42;95913.66;;;16.81;77.25
48563;BME280;34981;49.104;11.396;2022-09-06T01:00:09;95910.75;;;16.77;77.28
48563;BME280;34981;49.104;11.396;2022-09-06T01:02:37;95904.34;;;16.73;77.68
48563;BME280;34981;49.104;11.396;2022-09-06T01:05:04;95906.56;;;16.71;77.78
48563;BME280;34981;49.104;11.396;2022-09-06T01:13:39;95918.66;;;16.65;77.97
48563;BME280;34981;49.104;11.396;2022-09-06T01:16:06;95916.03;;;16.60;79.27
48563;BME280;34981;49.104;11.396;2022-09-06T01:21:12;95918.28;;;16.58;79.68
48563;BME280;34981;49.104;11.396;2022-09-06T01:26:21;95922.69;;;16.54;79.98
48563;BME280;34981;49.104;11.396;2022-09-06T01:28:53;95930.84;;;16.54;80.02
48563;BME280;34981;49.104;11.396;2022-09-06T01:31:34;95924.31;;;16.55;79.48
48563;BME280;34981;49.104;11.396;2022-09-06T01:36:32;95922.91;;;16.57;80.13
48563;BME280;34981;49.104;11.396;2022-09-06T01:39:27;95930.22;;;16.57;80.54
48563;BME280;34981;49.104;11.396;2022-09-06T01:41:55;95933.84;;;16.52;80.21
48563;BME280;34981;49.104;11.396;2022-09-06T01:44:23;95922.31;;;16.47;80.48
48563;BME280;34981;49.104;11.396;2022-09-06T02:02:19;95918.34;;;16.30;81.64
48563;BME280;34981;49.104;11.396;2022-09-06T02:04:55;95923.59;;;16.27;81.47
48563;BME280;34981;49.104;11.396;2022-09-06T02:07:28;95919.59;;;16.24;82.15
48563;BME280;34981;49.104;11.396;2022-09-06T02:09:57;95917.97;;;16.23;82.17
48563;BME280;34981;49.104;11.396;2022-09-06T02:12:25;95919.59;;;16.24;82.27
48563;BME280;34981;49.104;11.396;2022-09-06T02:15:00;95924.88;;;16.29;82.49
48563;BME280;34981;49.104;11.396;2022-09-06T02:17:33;95912.75;;;16.27;82.54
48563;BME280;34981;49.104;11.396;2022-09-06T02:20:03;95914.66;;;16.26;82.98
48563;BME280;34981;49.104;11.396;2022-09-06T02:22:33;95914.16;;;16.24;83.11
48563;BME280;34981;49.104;11.396;2022-09-06T02:25:03;95913.66;;;16.22;83.52
48563;BME280;34981;49.104;11.396;2022-09-06T02:27:33;95912.25;;;16.25;83.62
48563;BME280;34981;49.104;11.396;2022-09-06T02:30:00;95916.88;;;16.24;84.36
48563;BME280;34981;49.104;11.396;2022-09-06T02:32:29;95914.16;;;16.24;84.36
48563;BME280;34981;49.104;11.396;2022-09-06T02:34:58;95911.28;;;16.21;85.26
48563;BME280;34981;49.104;11.396;2022-09-06T02:37:25;95909.97;;;16.18;84.92
48563;BME280;34981;49.104;11.396;2022-09-06T02:39:53;95907.84;;;16.15;85.67
48563;BME280;34981;49.104;11.396;2022-09-06T02:42:21;95908.97;;;16.14;85.07
48563;BME280;34981;49.104;11.396;2022-09-06T02:44:48;95911.19;;;16.12;85.11
48563;BME280;34981;49.104;11.396;2022-09-06T02:47:16;95909.28;;;16.13;85.37
48563;BME280;34981;49.104;11.396;2022-09-06T02:49:43;95908.47;;;16.12;85.48
48563;BME280;34981;49.104;11.396;2022-09-06T02:52:10;95901.94;;;16.13;85.36
48563;BME280;34981;49.104;11.396;2022-09-06T02:57:33;95900.25;;;16.04;85.61
48563;BME280;34981;49.104;11.396;2022-09-06T03:00:00;95902.75;;;16.00;85.76
48563;BME280;34981;49.104;11.396;2022-09-06T03:02:27;95894.97;;;15.99;86.46
48563;BME280;34981;49.104;11.396;2022-09-06T03:04:54;95898.94;;;16.01;86.22
48563;BME280;34981;49.104;11.396;2022-09-06T03:07:21;95892.13;;;16.04;86.31
48563;BME280;34981;49.104;11.396;2022-09-06T03:09:49;95888.31;;;16.05;86.12
48563;BME280;34981;49.104;11.396;2022-09-06T03:12:16;95894.84;;;16.04;86.94
48563;BME280;34981;49.104;11.396;2022-09-06T03:14:43;95900.56;;;16.02;86.81
48563;BME280;34981;49.104;11.396;2022-09-06T03:17:10;95903.28;;;16.02;86.69
48563;BME280;34981;49.104;11.396;2022-09-06T03:19:37;95891.31;;;16.03;87.04
48563;BME280;34981;49.104;11.396;2022-09-06T03:22:04;95890.50;;;16.03;87.32
48563;BME280;34981;49.104;11.396;2022-09-06T03:24:31;95897.84;;;16.02;86.69
48563;BME280;34981;49.104;11.396;2022-09-06T03:26:58;95893.84;;;16.00;86.71
48563;BME280;34981;49.104;11.396;2022-09-06T03:29:25;95901.78;;;15.96;87.17
48563;BME280;34981;49.104;11.396;2022-09-06T03:31:52;95904.00;;;15.94;87.33
48563;BME280;34981;49.104;11.396;2022-09-06T03:34:19;95901.28;;;15.94;88.23
48563;BME280;34981;49.104;11.396;2022-09-06T03:36:46;95904.78;;;15.94;89.01
48563;BME280;34981;49.104;11.396;2022-09-06T03:39:13;95895.06;;;15.93;89.60
48563;BME280;34981;49.104;11.396;2022-09-06T03:41:41;95891.75;;;15.96;89.16
48563;BME280;34981;49.104;11.396;2022-09-06T03:44:08;95894.16;;;15.98;88.74
48563;BME280;34981;49.104;11.396;2022-09-06T03:46:35;95897.66;;;15.99;90.06
48563;BME280;34981;49.104;11.396;2022-09-06T03:49:02;95884.91;;;15.99;89.48
48563;BME280;34981;49.104;11.396;2022-09-06T03:51:29;95879.50;;;15.99;88.93
48563;BME280;34981;49.104;11.396;2022-09-06T03:53:56;95882.50;;;15.98;89.43
48563;BME280;34981;49.104;11.396;2022-09-06T03:56:23;95878.47;;;15.95;89.81
48563;BME280;34981;49.104;11.396;2022-09-06T03:58:50;95882.94;;;15.91;89.77
48563;BME280;34981;49.104;11.396;2022-09-06T04:01:17;95875.91;;;15.90;90.30
48563;BME280;34981;49.104;11.396;2022-09-06T04:03:45;95875.91;;;15.90;90.41
48563;BME280;34981;49.104;11.396;2022-09-06T04:06:12;95869.66;;;15.89;90.21
48563;BME280;34981;49.104;11.396;2022-09-06T04:08:39;95875.09;;;15.89;91.16
48563;BME280;34981;49.104;11.396;2022-09-06T04:11:06;95875.38;;;15.88;92.15
48563;BME280;34981;49.104;11.396;2022-09-06T04:13:34;95887.03;;;15.88;92.23
48563;BME280;34981;49.104;11.396;2022-09-06T04:16:02;95882.41;;;15.89;91.66
48563;BME280;34981;49.104;11.396;2022-09-06T04:18:29;95879.72;;;15.89;92.07
48563;BME280;34981;49.104;11.396;2022-09-06T04:20:57;95877.81;;;15.89;93.52
48563;BME280;34981;49.104;11.396;2022-09-06T04:23:24;95878.09;;;15.88;94.79
48563;BME280;34981;49.104;11.396;2022-09-06T04:25:52;95878.91;;;15.88;94.81
48563;BME280;34981;49.104;11.396;2022-09-06T04:28:20;95883.53;;;15.88;93.93
48563;BME280;34981;49.104;11.396;2022-09-06T04:30:51;95878.09;;;15.88;93.33
48563;BME280;34981;49.104;11.396;2022-09-06T04:33:19;95881.63;;;15.88;93.16
48563;BME280;34981;49.104;11.396;2022-09-06T04:35:49;95885.13;;;15.89;93.07
48563;BME280;34981;49.104;11.396;2022-09-06T04:38:16;95877.28;;;15.87;92.63
48563;BME280;34981;49.104;11.396;2022-09-06T04:40:43;95876.50;;;15.87;93.10
48563;BME280;34981;49.104;11.396;2022-09-06T04:43:10;95878.09;;;15.88;93.06
48563;BME280;34981;49.104;11.396;2022-09-06T04:45:37;95884.63;;;15.87;93.87
48563;BME280;34981;49.104;11.396;2022-09-06T04:48:04;95881.09;;;15.86;94.31
48563;BME280;34981;49.104;11.396;2022-09-06T04:50:32;95883.00;;;15.86;94.65
48563;BME280;34981;49.104;11.396;2022-09-06T04:53:04;95881.91;;;15.87;95.19
48563;BME280;34981;49.104;11.396;2022-09-06T04:55:32;95880.31;;;15.86;95.47
48563;BME280;34981;49.104;11.396;2022-09-06T04:57:59;95879.72;;;15.89;95.21
48563;BME280;34981;49.104;11.396;2022-09-06T05:00:27;95883.22;;;15.89;94.65
48563;BME280;34981;49.104;11.396;2022-09-06T05:02:54;95886.44;;;15.91;94.44
48563;BME280;34981;49.104;11.396;2022-09-06T05:05:21;95875.91;;;15.90;95.28
48563;BME280;34981;49.104;11.396;2022-09-06T05:07:52;95894.56;;;15.91;96.09
48563;BME280;34981;49.104;11.396;2022-09-06T05:10:19;95893.78;;;15.91;96.04
48563;BME280;34981;49.104;11.396;2022-09-06T05:12:50;95894.56;;;15.91;95.75
48563;BME280;34981;49.104;11.396;2022-09-06T05:15:18;95891.53;;;15.93;94.97
48563;BME280;34981;49.104;11.396;2022-09-06T05:17:46;95902.09;;;15.94;95.49
48563;BME280;34981;49.104;11.396;2022-09-06T05:20:13;95889.84;;;15.97;95.68
48563;BME280;34981;49.104;11.396;2022-09-06T05:22:41;95892.03;;;15.95;97.07
48563;BME280;34981;49.104;11.396;2022-09-06T05:25:08;95893.06;;;15.99;96.39
48563;BME280;34981;49.104;11.396;2022-09-06T05:27:35;95903.78;;;16.04;96.97
48563;BME280;34981;49.104;11.396;2022-09-06T05:30:03;95899.53;;;16.12;97.32
48563;BME280;34981;49.104;11.396;2022-09-06T05:32:30;95897.50;;;16.17;98.51
48563;BME280;34981;49.104;11.396;2022-09-06T05:34:57;95906.31;;;16.23;99.73
48563;BME280;34981;49.104;11.396;2022-09-06T05:37:24;95902.88;;;16.31;99.65
48563;BME280;34981;49.104;11.396;2022-09-06T05:39:51;95904.44;;;16.46;99.77
48563;BME280;34981;49.104;11.396;2022-09-06T05:42:18;95907.72;;;16.56;99.45
48563;BME280;34981;49.104;11.396;2022-09-06T05:44:45;95905.56;;;16.67;99.63
48563;BME280;34981;49.104;11.396;2022-09-06T05:47:13;95903.34;;;16.69;100.00
48563;BME280;34981;49.104;11.396;2022-09-06T05:49:40;95909.34;;;16.80;99.76
48563;BME280;34981;49.104;11.396;2022-09-06T05:52:07;95896.31;;;16.90;99.45
48563;BME280;34981;49.104;11.396;2022-09-06T05:54:34;95904.44;;;16.90;100.00
48563;BME280;34981;49.104;11.396;2022-09-06T05:57:01;95901.59;;;16.95;99.95
48563;BME280;34981;49.104;11.396;2022-09-06T05:59:28;95898.81;;;17.09;100.00
48563;BME280;34981;49.104;11.396;2022-09-06T06:01:55;95908.28;;;17.20;100.00
48563;BME280;34981;49.104;11.396;2022-09-06T06:04:22;95909.94;;;17.30;100.00
48563;BME280;34981;49.104;11.396;2022-09-06T06:06:49;95909.03;;;17.43;100.00
48563;BME280;34981;49.104;11.396;2022-09-06T06:09:17;95915.66;;;17.59;100.00
48563;BME280;34981;49.104;11.396;2022-09-06T06:11:44;95908.50;;;17.72;100.00
48563;BME280;34981;49.104;11.396;2022-09-06T06:14:11;95914.16;;;17.93;100.00
48563;BME280;34981;49.104;11.396;2022-09-06T06:16:38;95922.63;;;17.91;100.00
48563;BME280;34981;49.104;11.396;2022-09-06T06:19:05;95926.78;;;17.97;100.00
48563;BME280;34981;49.104;11.396;2022-09-06T06:21:32;95925.53;;;17.95;100.00
48563;BME280;34981;49.104;11.396;2022-09-06T06:24:00;95929.25;;;18.16;100.00
48563;BME280;34981;49.104;11.396;2022-09-06T06:26:29;95929.25;;;18.24;100.00
48563;BME280;34981;49.104;11.396;2022-09-06T06:28:57;95928.47;;;18.33;100.00
48563;BME280;34981;49.104;11.396;2022-09-06T06:31:28;95926.06;;;18.48;100.00
48563;BME280;34981;49.104;11.396;2022-09-06T06:33:55;95923.81;;;18.50;100.00
48563;BME280;34981;49.104;11.396;2022-09-06T06:36:23;95929.94;;;18.56;100.00
48563;BME280;34981;49.104;11.396;2022-09-06T06:38:51;95924.97;;;18.66;100.00
48563;BME280;34981;49.104;11.396;2022-09-06T06:41:20;95933.31;;;18.61;100.00
48563;BME280;34981;49.104;11.396;2022-09-06T06:44:00;95940.16;;;18.50;99.50
48563;BME280;34981;49.104;11.396;2022-09-06T06:46:28;95940.31;;;18.45;99.49
48563;BME280;34981;49.104;11.396;2022-09-06T06:48:57;95929.91;;;18.39;99.80
48563;BME280;34981;49.104;11.396;2022-09-06T06:51:28;95939.03;;;18.43;99.77
48563;BME280;34981;49.104;11.396;2022-09-06T06:53:55;95926.56;;;18.33;100.00
48563;BME280;34981;49.104;11.396;2022-09-06T06:58:51;95920.81;;;18.60;100.00
48563;BME280;34981;49.104;11.396;2022-09-06T07:01:19;95924.34;;;18.61;100.00
48563;BME280;34981;49.104;11.396;2022-09-06T07:03:47;95921.63;;;18.61;100.00
48563;BME280;34981;49.104;11.396;2022-09-06T07:06:14;95914.38;;;18.56;100.00
48563;BME280;34981;49.104;11.396;2022-09-06T07:08:41;95913.59;;;18.64;100.00
48563;BME280;34981;49.104;11.396;2022-09-06T07:11:10;95917.09;;;18.82;100.00
48563;BME280;34981;49.104;11.396;2022-09-06T07:13:37;95920.44;;;18.88;100.00
48563;BME280;34981;49.104;11.396;2022-09-06T07:16:15;95908.28;;;18.85;100.00
48563;BME280;34981;49.104;11.396;2022-09-06T07:18:43;95906.16;;;19.08;100.00
48563;BME280;34981;49.104;11.396;2022-09-06T07:21:12;95910.44;;;19.18;100.00
48563;BME280;34981;49.104;11.396;2022-09-06T07:23:59;95896.84;;;19.09;100.00
48563;BME280;34981;49.104;11.396;2022-09-06T07:26:29;95890.91;;;19.16;99.51
48563;BME280;34981;49.104;11.396;2022-09-06T07:28:58;95882.22;;;19.22;99.42
48563;BME280;34981;49.104;11.396;2022-09-06T07:31:26;95884.41;;;19.37;99.58
48563;BME280;34981;49.104;11.396;2022-09-06T07:34:14;95878.91;;;19.55;98.87
48563;BME280;34981;49.104;11.396;2022-09-06T07:36:41;95887.31;;;19.79;99.13
48563;BME280;34981;49.104;11.396;2022-09-06T07:39:09;95891.56;;;19.89;97.13
48563;BME280;34981;49.104;11.396;2022-09-06T07:41:36;95891.47;;;20.06;97.71
48563;BME280;34981;49.104;11.396;2022-09-06T07:44:03;95889.78;;;20.43;97.66
48563;BME280;34981;49.104;11.396;2022-09-06T07:46:30;95896.66;;;20.61;97.25
48563;BME280;34981;49.104;11.396;2022-09-06T07:48:57;95892.34;;;20.39;94.47
48563;BME280;34981;49.104;11.396;2022-09-06T07:51:24;95894.28;;;20.39;94.42
48563;BME280;34981;49.104;11.396;2022-09-06T07:53:52;95903.19;;;20.69;94.37
48563;BME280;34981;49.104;11.396;2022-09-06T07:56:39;95893.19;;;20.31;91.52
48563;BME280;34981;49.104;11.396;2022-09-06T07:59:06;95893.53;;;20.30;92.39
48563;BME280;34981;49.104;11.396;2022-09-06T08:01:35;95891.94;;;20.29;91.28
48563;BME280;34981;49.104;11.396;2022-09-06T08:04:09;95898.56;;;20.48;91.18
48563;BME280;34981;49.104;11.396;2022-09-06T08:06:37;95901.91;;;20.87;90.23
48563;BME280;34981;49.104;11.396;2022-09-06T08:09:24;95906.25;;;21.21;89.46
48563;BME280;34981;49.104;11.396;2022-09-06T08:11:51;95902.09;;;21.15;88.27
48563;BME280;34981;49.104;11.396;2022-09-06T08:14:18;95901.34;;;21.26;88.47
48563;BME280;34981;49.104;11.396;2022-09-06T08:16:46;95904.59;;;21.65;88.12
48563;BME280;34981;49.104;11.396;2022-09-06T08:19:13;95906.06;;;21.50;86.13
48563;BME280;34981;49.104;11.396;2022-09-06T08:21:40;95905.53;;;21.69;86.00
48563;BME280;34981;49.104;11.396;2022-09-06T08:24:07;95902.88;;;21.72;85.37
48563;BME280;34981;49.104;11.396;2022-09-06T08:26:38;95891.03;;;21.81;85.61
48563;BME280;34981;49.104;11.396;2022-09-06T08:29:14;95896.31;;;21.98;84.05
48563;BME280;34981;49.104;11.396;2022-09-06T08:31:41;95892.50;;;22.14;84.62
48563;BME280;34981;49.104;11.396;2022-09-06T08:34:09;95901.06;;;21.89;83.73
48563;BME280;34981;49.104;11.396;2022-09-06T08:36:38;95880.53;;;22.19;83.00
48563;BME280;34981;49.104;11.396;2022-09-06T08:39:06;95886.06;;;22.47;82.59
48563;BME280;34981;49.104;11.396;2022-09-06T08:47:23;95902.31;;;22.68;79.50
48563;BME280;34981;49.104;11.396;2022-09-06T08:49:52;95894.13;;;22.56;79.44
48563;BME280;34981;49.104;11.396;2022-09-06T08:58:20;95900.13;;;22.73;76.75
48563;BME280;34981;49.104;11.396;2022-09-06T09:00:58;95899.63;;;22.56;76.63
48563;BME280;34981;49.104;11.396;2022-09-06T09:03:34;95904.63;;;22.53;76.73
48563;BME280;34981;49.104;11.396;2022-09-06T09:06:04;95913.63;;;22.94;75.74
48563;BME280;34981;49.104;11.396;2022-09-06T09:08:40;95902.53;;;22.75;73.43
48563;BME280;34981;49.104;11.396;2022-09-06T09:11:28;95908.25;;;22.70;72.21
48563;BME280;34981;49.104;11.396;2022-09-06T09:13:57;95898.97;;;23.02;73.81
48563;BME280;34981;49.104;11.396;2022-09-06T09:16:28;95889.47;;;23.12;74.04
48563;BME280;34981;49.104;11.396;2022-09-06T09:18:56;95889.16;;;23.45;74.03
48563;BME280;34981;49.104;11.396;2022-09-06T09:21:27;95894.66;;;23.45;73.82
48563;BME280;34981;49.104;11.396;2022-09-06T09:23:57;95890.41;;;23.63;73.15
48563;BME280;34981;49.104;11.396;2022-09-06T09:26:25;95886.97;;;23.50;72.04
48563;BME280;34981;49.104;11.396;2022-09-06T09:29:00;95891.38;;;23.71;72.72
48563;BME280;34981;49.104;11.396;2022-09-06T09:31:37;95884.75;;;23.56;72.36
48563;BME280;34981;49.104;11.396;2022-09-06T09:34:09;95886.88;;;23.78;72.51
48563;BME280;34981;49.104;11.396;2022-09-06T09:36:36;95872.16;;;23.86;71.52
48563;BME280;34981;49.104;11.396;2022-09-06T09:39:08;95874.91;;;23.86;71.34
48563;BME280;34981;49.104;11.396;2022-09-06T09:41:35;95875.53;;;23.95;71.22
48563;BME280;34981;49.104;11.396;2022-09-06T09:44:05;95868.59;;;24.01;70.66
48563;BME280;34981;49.104;11.396;2022-09-06T09:46:42;95869.09;;;24.23;70.51
48563;BME280;34981;49.104;11.396;2022-09-06T09:49:13;95867.22;;;24.27;69.04
48563;BME280;34981;49.104;11.396;2022-09-06T09:52:04;95864.56;;;24.30;69.59
48563;BME280;34981;49.104;11.396;2022-09-06T09:54:29;95863.13;;;24.36;69.59
48563;BME280;34981;49.104;11.396;2022-09-06T09:56:57;95865.50;;;24.38;68.41
48563;BME280;34981;49.104;11.396;2022-09-06T10:01:55;95864.50;;;24.65;68.36
48563;BME280;34981;49.104;11.396;2022-09-06T10:07:13;95868.19;;;24.92;67.57
48563;BME280;34981;49.104;11.396;2022-09-06T10:09:41;95860.44;;;24.59;66.04
48563;BME280;34981;49.104;11.396;2022-09-06T10:12:14;95859.28;;;24.79;66.27
48563;BME280;34981;49.104;11.396;2022-09-06T10:14:43;95859.66;;;24.97;66.05
48563;BME280;34981;49.104;11.396;2022-09-06T10:17:18;95856.81;;;25.13;64.51
48563;BME280;34981;49.104;11.396;2022-09-06T10:19:45;95850.31;;;25.02;63.95
48563;BME280;34981;49.104;11.396;2022-09-06T10:23:18;95852.56;;;24.96;64.38
48563;BME280;34981;49.104;11.396;2022-09-06T10:25:31;95838.38;;;24.94;62.11
48563;BME280;34981;49.104;11.396;2022-09-06T10:28:12;95850.47;;;24.70;59.76
48563;BME280;34981;49.104;11.396;2022-09-06T10:30:44;95852.00;;;24.68;58.91
48563;BME280;34981;49.104;11.396;2022-09-06T10:33:20;95848.72;;;24.81;60.24
48563;BME280;34981;49.104;11.396;2022-09-06T10:35:50;95843.56;;;24.99;59.64
48563;BME280;34981;49.104;11.396;2022-09-06T10:41:07;95841.59;;;25.19;58.47
48563;BME280;34981;49.104;11.396;2022-09-06T10:46:16;95834.22;;;24.84;56.00
48563;BME280;34981;49.104;11.396;2022-09-06T10:48:47;95837.66;;;24.78;57.22
48563;BME280;34981;49.104;11.396;2022-09-06T10:51:24;95845.03;;;24.93;57.15
48563;BME280;34981;49.104;11.396;2022-09-06T10:54:00;95833.13;;;25.28;58.61
48563;BME280;34981;49.104;11.396;2022-09-06T11:01:56;95829.78;;;24.96;56.76
48563;BME280;34981;49.104;11.396;2022-09-06T11:04:49;95814.88;;;25.42;55.24
48563;BME280;34981;49.104;11.396;2022-09-06T11:07:36;95816.16;;;25.26;54.70
48563;BME280;34981;49.104;11.396;2022-09-06T11:10:06;95823.81;;;25.58;55.64
48563;BME280;34981;49.104;11.396;2022-09-06T11:15:14;95811.38;;;25.45;54.23
48563;BME280;34981;49.104;11.396;2022-09-06T11:17:45;95813.13;;;25.57;54.01
48563;BME280;34981;49.104;11.396;2022-09-06T11:20:19;95815.66;;;25.43;54.52
48563;BME280;34981;49.104;11.396;2022-09-06T11:28:01;95804.25;;;25.64;54.65
48563;BME280;34981;49.104;11.396;2022-09-06T11:30:31;95806.19;;;25.89;55.04
48563;BME280;34981;49.104;11.396;2022-09-06T11:33:08;95805.94;;;25.98;54.97
48563;BME280;34981;49.104;11.396;2022-09-06T11:35:37;95791.34;;;25.97;53.89
48563;BME280;34981;49.104;11.396;2022-09-06T11:40:40;95787.06;;;25.74;51.80
48563;BME280;34981;49.104;11.396;2022-09-06T11:53:20;95773.94;;;25.90;51.93
48563;BME280;34981;49.104;11.396;2022-09-06T11:55:49;95766.94;;;25.96;51.84
48563;BME280;34981;49.104;11.396;2022-09-06T12:00:44;95767.97;;;25.84;52.29
48563;BME280;34981;49.104;11.396;2022-09-06T12:08:54;95771.44;;;26.38;52.32
48563;BME280;34981;49.104;11.396;2022-09-06T12:11:25;95776.13;;;26.33;52.00
48563;BME280;34981;49.104;11.396;2022-09-06T12:19:37;95759.75;;;26.48;51.15
48563;BME280;34981;49.104;11.396;2022-09-06T12:24:57;95758.88;;;26.73;51.42
48563;BME280;34981;49.104;11.396;2022-09-06T12:27:26;95759.63;;;27.07;52.64
48563;BME280;34981;49.104;11.396;2022-09-06T12:29:58;95752.94;;;26.75;50.24
48563;BME280;34981;49.104;11.396;2022-09-06T12:32:29;95755.31;;;26.40;50.05
48563;BME280;34981;49.104;11.396;2022-09-06T12:35:03;95757.72;;;26.45;51.78
48563;BME280;34981;49.104;11.396;2022-09-06T12:37:58;95759.72;;;26.44;51.44
48563;BME280;34981;49.104;11.396;2022-09-06T12:40:27;95757.66;;;26.08;51.48
48563;BME280;34981;49.104;11.396;2022-09-06T12:42:55;95757.91;;;26.25;52.47
48563;BME280;34981;49.104;11.396;2022-09-06T12:45:23;95749.34;;;26.04;52.25
48563;BME280;34981;49.104;11.396;2022-09-06T12:48:06;95748.47;;;26.26;53.19
48563;BME280;34981;49.104;11.396;2022-09-06T12:50:35;95741.19;;;26.45;52.10
48563;BME280;34981;49.104;11.396;2022-09-06T12:53:02;95742.63;;;26.65;50.60
48563;BME280;34981;49.104;11.396;2022-09-06T12:55:31;95730.50;;;26.73;51.16
48563;BME280;34981;49.104;11.396;2022-09-06T12:57:59;95722.97;;;26.70;49.78
48563;BME280;34981;49.104;11.396;2022-09-06T13:00:49;95731.69;;;26.75;50.38
48563;BME280;34981;49.104;11.396;2022-09-06T13:05:44;95732.72;;;26.97;48.61
48563;BME280;34981;49.104;11.396;2022-09-06T13:08:12;95728.47;;;27.07;49.32
48563;BME280;34981;49.104;11.396;2022-09-06T13:10:41;95722.56;;;27.08;49.79
48563;BME280;34981;49.104;11.396;2022-09-06T13:13:09;95740.34;;;27.15;49.44
48563;BME280;34981;49.104;11.396;2022-09-06T13:15:37;95732.69;;;26.94;49.00
48563;BME280;34981;49.104;11.396;2022-09-06T13:18:18;95726.06;;;26.65;49.34
48563;BME280;34981;49.104;11.396;2022-09-06T13:20:56;95723.75;;;26.70;49.89
48563;BME280;34981;49.104;11.396;2022-09-06T13:23:23;95720.56;;;26.68;49.58
48563;BME280;34981;49.104;11.396;2022-09-06T13:25:51;95709.53;;;26.65;50.01
48563;BME280;34981;49.104;11.396;2022-09-06T13:28:26;95717.50;;;26.73;50.18
48563;BME280;34981;49.104;11.396;2022-09-06T13:31:28;95720.63;;;26.72;49.31
48563;BME280;34981;49.104;11.396;2022-09-06T13:33:57;95721.50;;;26.43;48.03
48563;BME280;34981;49.104;11.396;2022-09-06T13:36:28;95711.38;;;26.20;48.95
48563;BME280;34981;49.104;11.396;2022-09-06T13:38:57;95715.22;;;26.16;48.43
48563;BME280;34981;49.104;11.396;2022-09-06T13:44:03;95716.09;;;26.20;48.92
48563;BME280;34981;49.104;11.396;2022-09-06T13:46:31;95720.34;;;26.14;48.92
48563;BME280;34981;49.104;11.396;2022-09-06T13:48:59;95717.81;;;26.31;48.85
48563;BME280;34981;49.104;11.396;2022-09-06T13:51:26;95724.97;;;26.36;47.28
48563;BME280;34981;49.104;11.396;2022-09-06T13:54:03;95717.06;;;26.34;47.82
48563;BME280;34981;49.104;11.396;2022-09-06T13:56:31;95714.25;;;26.27;47.60
48563;BME280;34981;49.104;11.396;2022-09-06T13:58:58;95718.59;;;26.32;47.85
48563;BME280;34981;49.104;11.396;2022-09-06T14:01:25;95713.44;;;26.27;47.32
48563;BME280;34981;49.104;11.396;2022-09-06T14:03:52;95709.22;;;26.37;47.35
48563;BME280;34981;49.104;11.396;2022-09-06T14:06:20;95701.13;;;26.21;47.33
48563;BME280;34981;49.104;11.396;2022-09-06T14:08:47;95707.03;;;26.23;47.42
48563;BME280;34981;49.104;11.396;2022-09-06T14:11:33;95712.19;;;26.24;46.40
48563;BME280;34981;49.104;11.396;2022-09-06T14:14:00;95707.56;;;26.28;46.66
48563;BME280;34981;49.104;11.396;2022-09-06T14:16:27;95703.75;;;26.40;47.45
48563;BME280;34981;49.104;11.396;2022-09-06T14:18:55;95699.94;;;26.52;47.70
48563;BME280;34981;49.104;11.396;2022-09-06T14:21:23;95689.59;;;26.42;47.28
48563;BME280;34981;49.104;11.396;2022-09-06T14:23:50;95695.75;;;26.28;46.58
48563;BME280;34981;49.104;11.396;2022-09-06T14:26:19;95701.09;;;26.17;46.71
48563;BME280;34981;49.104;11.396;2022-09-06T14:28:46;95685.34;;;26.18;45.92
48563;BME280;34981;49.104;11.396;2022-09-06T14:31:18;95687.28;;;26.14;47.11
48563;BME280;34981;49.104;11.396;2022-09-06T14:33:46;95689.16;;;26.06;46.47
48563;BME280;34981;49.104;11.396;2022-09-06T14:36:15;95696.47;;;25.91;46.57
48563;BME280;34981;49.104;11.396;2022-09-06T14:38:43;95690.97;;;25.95;46.67
48563;BME280;34981;49.104;11.396;2022-09-06T14:41:11;95681.47;;;25.89;46.32
48563;BME280;34981;49.104;11.396;2022-09-06T14:43:42;95677.97;;;25.92;47.36
48563;BME280;34981;49.104;11.396;2022-09-06T14:46:11;95675.53;;;25.87;47.48